createdAt,value
2019-01-13T00:03:09.771Z,14.80
2019-01-13T00:09:14.123Z,17.52
2019-01-13T00:15:18.613Z,21.82
2019-01-13T00:21:22.962Z,21.00
2019-01-13T00:27:27.380Z,22.10
2019-01-13T00:33:31.735Z,16.65
2019-01-13T00:39:36.121Z,12.63
2019-01-13T00:45:40.462Z,7.75
2019-01-13T00:51:44.707Z,7.40
2019-01-13T00:57:48.992Z,10.32
2019-01-13T01:03:53.294Z,5.15
2019-01-13T01:09:57.532Z,8.40
2019-01-13T01:16:01.872Z,8.13
2019-01-13T01:22:06.484Z,6.92
2019-01-13T01:28:10.690Z,13.00
2019-01-13T01:34:15.012Z,8.15
2019-01-13T01:40:22.410Z,7.20
2019-01-13T01:46:26.596Z,5.80
2019-01-13T01:52:30.822Z,4.55
2019-01-13T01:58:35.033Z,9.23
2019-01-13T02:04:39.225Z,12.15
2019-01-13T02:10:43.569Z,9.48
2019-01-13T02:16:47.894Z,10.53
2019-01-13T02:22:52.130Z,5.15
2019-01-13T02:28:56.311Z,6.05
2019-01-13T02:35:00.600Z,8.55
2019-01-13T02:41:04.789Z,7.05
2019-01-13T02:47:09.165Z,5.70
2019-01-13T02:53:13.363Z,8.33
2019-01-13T02:59:17.624Z,7.25
2019-01-13T03:05:21.962Z,8.70
2019-01-13T03:11:26.329Z,7.50
2019-01-13T03:17:30.547Z,4.45
2019-01-13T03:23:35.044Z,6.20
2019-01-13T03:29:39.248Z,6.50
2019-01-13T03:35:44.197Z,3.90
2019-01-13T03:41:48.372Z,5.37
2019-01-13T03:47:52.579Z,5.78
2019-01-13T03:53:56.817Z,6.15
2019-01-13T04:00:01.142Z,4.53
2019-01-13T04:06:05.370Z,3.42
2019-01-13T04:12:09.578Z,3.72
2019-01-13T04:18:13.905Z,5.08
2019-01-13T04:24:18.084Z,2.92
2019-01-13T04:30:22.362Z,3.15
2019-01-13T04:36:26.558Z,3.20
2019-01-13T04:42:30.969Z,3.67
2019-01-13T04:48:35.152Z,4.33
2019-01-13T04:54:39.576Z,3.98
2019-01-13T05:00:43.849Z,3.22
2019-01-13T05:06:48.118Z,2.90
2019-01-13T05:12:52.277Z,2.50
2019-01-13T05:18:56.800Z,3.27
2019-01-13T05:25:00.983Z,3.22
2019-01-13T05:31:05.257Z,2.65
2019-01-13T05:37:09.476Z,2.60
2019-01-13T05:43:13.824Z,2.33
2019-01-13T05:49:18.052Z,3.05
2019-01-13T05:55:22.484Z,2.12
2019-01-13T06:01:26.739Z,2.72
2019-01-13T06:07:30.945Z,2.70
2019-01-13T06:13:35.115Z,2.47
2019-01-13T06:19:39.407Z,2.30
2019-01-13T06:25:43.598Z,1.92
2019-01-13T06:31:47.883Z,2.42
2019-01-13T06:37:52.098Z,2.05
2019-01-13T06:43:56.255Z,2.17
2019-01-13T06:50:00.459Z,1.95
2019-01-13T06:56:04.711Z,2.40
2019-01-13T07:02:08.970Z,1.72
2019-01-13T07:08:13.174Z,1.82
2019-01-13T07:14:17.475Z,2.20
2019-01-13T07:20:22.621Z,2.02
2019-01-13T07:26:27.092Z,2.02
2019-01-13T07:32:31.275Z,2.12
2019-01-13T07:38:35.473Z,4.22
2019-01-13T07:44:39.685Z,1.87
2019-01-13T07:50:43.980Z,2.20
2019-01-13T07:56:48.173Z,2.70
2019-01-13T08:02:52.371Z,2.15
2019-01-13T08:08:56.536Z,2.10
2019-01-13T08:15:00.725Z,2.77
2019-01-13T08:21:05.177Z,2.27
2019-01-13T08:27:09.403Z,2.20
2019-01-13T08:33:13.672Z,2.15
2019-01-13T08:39:17.877Z,2.70
2019-01-13T08:45:22.090Z,2.87
2019-01-13T08:51:26.273Z,2.92
2019-01-13T08:57:30.534Z,2.70
2019-01-13T09:03:34.833Z,2.80
2019-01-13T09:09:39.275Z,2.62
2019-01-13T09:15:43.482Z,2.72
2019-01-13T09:21:47.783Z,2.08
2019-01-13T09:27:52.080Z,2.50
2019-01-13T09:33:56.337Z,2.30
2019-01-13T09:40:00.655Z,2.80
2019-01-13T09:46:05.156Z,2.70
2019-01-13T09:52:09.742Z,2.45
2019-01-13T09:58:13.957Z,2.10
2019-01-13T10:04:18.191Z,2.52
2019-01-13T10:10:22.433Z,1.98
2019-01-13T10:16:26.991Z,2.35
2019-01-13T10:22:31.297Z,2.67
2019-01-13T10:28:35.575Z,2.75
2019-01-13T10:34:39.978Z,2.90
2019-01-13T10:40:44.251Z,3.05
2019-01-13T10:46:48.547Z,3.30
2019-01-13T10:52:53.646Z,2.77
2019-01-13T10:58:58.157Z,2.70
2019-01-13T11:05:02.343Z,2.70
2019-01-13T11:11:06.610Z,2.02
2019-01-13T11:17:10.817Z,2.58
2019-01-13T11:23:15.247Z,3.15
2019-01-13T11:29:19.445Z,2.25
2019-01-13T11:35:23.847Z,3.83
2019-01-13T11:41:28.067Z,3.75
2019-01-13T11:47:32.381Z,4.58
2019-01-13T11:53:36.671Z,4.70
2019-01-13T11:59:40.867Z,3.95
2019-01-13T12:05:45.151Z,4.50
2019-01-13T12:28:29.129Z,4.17
2019-01-13T12:34:33.493Z,4.47
2019-01-13T12:40:37.857Z,4.00
2019-01-13T12:46:42.084Z,4.47
2019-01-13T12:52:46.346Z,3.35
2019-01-13T12:58:50.591Z,3.52
2019-01-13T13:04:54.810Z,3.30
2019-01-13T13:10:59.182Z,4.30
2019-01-13T13:17:03.447Z,3.50
2019-01-13T13:23:08.526Z,4.42
2019-01-13T13:29:12.712Z,3.85
2019-01-13T13:35:16.936Z,4.40
2019-01-13T13:41:21.140Z,3.58
2019-01-13T13:47:25.359Z,3.05
2019-01-13T13:53:29.614Z,3.80
2019-01-13T13:59:33.843Z,3.50
2019-01-13T14:05:38.139Z,3.00
2019-01-13T14:11:42.340Z,2.92
2019-01-13T14:17:46.852Z,2.80
2019-01-13T14:23:51.088Z,2.95
2019-01-13T14:29:55.325Z,2.80
2019-01-13T14:35:59.517Z,3.62
2019-01-13T14:42:03.797Z,5.62
2019-01-13T14:48:08.090Z,6.15
2019-01-13T14:54:12.439Z,7.97
2019-01-13T15:00:22.666Z,11.18
2019-01-13T15:06:26.968Z,15.38
2019-01-13T15:12:31.196Z,12.98
2019-01-13T15:18:35.442Z,9.90
2019-01-13T15:24:39.674Z,22.02
2019-01-13T15:30:43.911Z,25.37
2019-01-13T15:36:48.134Z,12.25
2019-01-13T15:42:52.484Z,26.37
2019-01-13T15:48:56.791Z,21.90
2019-01-13T15:55:01.062Z,25.48
2019-01-13T16:01:05.346Z,22.58
2019-01-13T16:07:09.709Z,18.70
2019-01-13T16:13:13.956Z,25.80
2019-01-13T16:19:18.193Z,21.42
2019-01-13T16:25:22.536Z,9.85
2019-01-13T16:31:26.948Z,20.00
2019-01-13T16:37:31.206Z,17.82
2019-01-13T16:43:35.500Z,6.20
2019-01-13T16:49:39.978Z,14.87
2019-01-13T16:55:44.177Z,27.60
2019-01-13T17:01:48.533Z,14.10
2019-01-13T17:07:53.315Z,16.27
2019-01-13T17:13:57.604Z,29.55
2019-01-13T17:20:01.944Z,26.37
2019-01-13T17:26:06.230Z,23.55
2019-01-13T17:32:10.479Z,27.27
2019-01-13T17:38:14.755Z,7.87
2019-01-13T17:44:18.963Z,21.23
2019-01-13T17:50:24.224Z,12.70
2019-01-13T17:56:28.518Z,23.22
2019-01-13T18:02:32.889Z,22.37
2019-01-13T18:08:37.099Z,12.33
2019-01-13T18:14:41.306Z,17.35
2019-01-13T18:20:45.611Z,20.70
2019-01-13T18:26:49.854Z,16.30
2019-01-13T18:32:54.163Z,16.02
2019-01-13T18:38:58.371Z,23.80
2019-01-13T18:45:02.743Z,28.85
2019-01-13T18:51:07.037Z,35.78
2019-01-13T18:57:11.322Z,27.42
2019-01-13T19:03:15.535Z,13.20
2019-01-13T19:09:19.941Z,11.28
2019-01-13T19:15:24.159Z,22.67
2019-01-13T19:21:28.475Z,20.95
2019-01-13T19:27:32.785Z,52.95
2019-01-13T19:33:37.195Z,53.33
2019-01-13T19:39:41.721Z,25.02
2019-01-13T19:45:45.950Z,58.40
2019-01-13T19:51:50.237Z,32.73
2019-01-13T19:57:55.200Z,37.98
2019-01-13T20:03:59.528Z,33.45
2019-01-13T20:10:04.900Z,60.88
2019-01-13T20:16:09.330Z,13.32
2019-01-13T20:22:13.631Z,8.68
2019-01-13T20:28:17.902Z,4.25
2019-01-13T20:34:22.193Z,60.65
2019-01-13T20:40:26.417Z,31.62
2019-01-13T20:46:30.757Z,59.30
2019-01-13T20:52:35.138Z,11.88
2019-01-13T20:58:39.486Z,25.65
2019-01-13T21:04:43.726Z,28.52
2019-01-13T21:10:47.946Z,62.88
2019-01-13T21:16:52.234Z,36.95
2019-01-13T21:22:56.458Z,76.33
2019-01-13T21:29:00.817Z,14.18
2019-01-13T21:35:05.987Z,82.53
2019-01-13T21:41:10.225Z,68.50
2019-01-13T21:47:14.469Z,94.00
2019-01-13T21:53:18.720Z,69.80
2019-01-13T21:59:23.512Z,32.55
2019-01-13T22:05:27.947Z,23.90
2019-01-13T22:11:32.447Z,44.45
2019-01-13T22:17:37.001Z,52.10
2019-01-13T22:23:41.275Z,17.45
2019-01-13T22:29:45.613Z,32.08
2019-01-13T22:35:50.081Z,33.13
2019-01-13T22:41:54.316Z,32.63
2019-01-13T22:47:58.729Z,47.38
2019-01-13T22:54:03.083Z,33.75
2019-01-13T23:00:58.270Z,26.45
2019-01-13T23:07:02.570Z,25.55
2019-01-13T23:13:06.881Z,16.60
2019-01-13T23:19:11.305Z,27.17
2019-01-13T23:25:15.538Z,38.13
2019-01-13T23:31:19.775Z,19.05
2019-01-13T23:37:24.174Z,13.30
2019-01-13T23:43:28.403Z,17.77
2019-01-13T23:49:32.826Z,10.40
2019-01-13T23:55:41.190Z,26.05
